sensor_id;sensor_type;location;lat;lon;timestamp;P1;durP1;ratioP1;P2;durP2;ratioP2
28774;SDS011;15926;51.348;6.596;2023-09-08T04:02:10;7.45;;;6.75;;
28774;SDS011;15926;51.348;6.596;2023-09-08T04:04:36;8.73;;;6.72;;
28774;SDS011;15926;51.348;6.596;2023-09-08T04:07:02;9.73;;;6.05;;
28774;SDS011;15926;51.348;6.596;2023-09-08T04:09:28;11.85;;;6.78;;
28774;SDS011;15926;51.348;6.596;2023-09-08T04:11:54;11.52;;;6.50;;
28774;SDS011;15926;51.348;6.596;2023-09-08T04:14:21;9.40;;;7.13;;
28774;SDS011;15926;51.348;6.596;2023-09-08T04:16:48;11.38;;;7.10;;
28774;SDS011;15926;51.348;6.596;2023-09-08T04:19:14;10.15;;;6.45;;
28774;SDS011;15926;51.348;6.596;2023-09-08T04:21:41;10.13;;;6.80;;
28774;SDS011;15926;51.348;6.596;2023-09-08T04:24:07;9.13;;;6.90;;
28774;SDS011;15926;51.348;6.596;2023-09-08T04:26:35;8.50;;;6.57;;
28774;SDS011;15926;51.348;6.596;2023-09-08T04:29:01;9.75;;;6.55;;
28774;SDS011;15926;51.348;6.596;2023-09-08T04:31:27;7.35;;;6.38;;
28774;SDS011;15926;51.348;6.596;2023-09-08T04:33:53;7.72;;;6.53;;
28774;SDS011;15926;51.348;6.596;2023-09-08T04:36:19;9.38;;;6.90;;
28774;SDS011;15926;51.348;6.596;2023-09-08T04:38:45;7.22;;;6.40;;
28774;SDS011;15926;51.348;6.596;2023-09-08T04:41:11;8.85;;;6.97;;
28774;SDS011;15926;51.348;6.596;2023-09-08T04:43:37;11.23;;;7.03;;
28774;SDS011;15926;51.348;6.596;2023-09-08T04:46:03;11.45;;;6.95;;
28774;SDS011;15926;51.348;6.596;2023-09-08T04:48:29;11.13;;;7.20;;
28774;SDS011;15926;51.348;6.596;2023-09-08T04:50:56;8.45;;;7.00;;
28774;SDS011;15926;51.348;6.596;2023-09-08T04:53:22;8.65;;;6.70;;
28774;SDS011;15926;51.348;6.596;2023-09-08T04:55:48;7.20;;;6.50;;
28774;SDS011;15926;51.348;6.596;2023-09-08T04:58:14;7.80;;;7.00;;
28774;SDS011;15926;51.348;6.596;2023-09-08T05:00:40;8.90;;;6.38;;
28774;SDS011;15926;51.348;6.596;2023-09-08T05:03:06;12.05;;;7.15;;
28774;SDS011;15926;51.348;6.596;2023-09-08T05:05:32;8.63;;;6.65;;
28774;SDS011;15926;51.348;6.596;2023-09-08T05:07:58;7.90;;;7.05;;
28774;SDS011;15926;51.348;6.596;2023-09-08T05:10:24;8.50;;;6.30;;
28774;SDS011;15926;51.348;6.596;2023-09-08T05:12:50;7.65;;;6.45;;
28774;SDS011;15926;51.348;6.596;2023-09-08T05:15:16;18.52;;;7.45;;
28774;SDS011;15926;51.348;6.596;2023-09-08T05:17:45;7.82;;;6.43;;
28774;SDS011;15926;51.348;6.596;2023-09-08T05:20:11;10.27;;;6.45;;
28774;SDS011;15926;51.348;6.596;2023-09-08T05:22:37;7.75;;;6.88;;
28774;SDS011;15926;51.348;6.596;2023-09-08T05:25:03;7.68;;;6.88;;
28774;SDS011;15926;51.348;6.596;2023-09-08T05:27:29;11.18;;;7.18;;
28774;SDS011;15926;51.348;6.596;2023-09-08T05:29:56;11.82;;;7.53;;
28774;SDS011;15926;51.348;6.596;2023-09-08T05:32:23;9.70;;;7.28;;
28774;SDS011;15926;51.348;6.596;2023-09-08T05:34:49;8.02;;;6.30;;
28774;SDS011;15926;51.348;6.596;2023-09-08T05:37:15;10.88;;;7.05;;
28774;SDS011;15926;51.348;6.596;2023-09-08T05:39:41;8.88;;;7.10;;
28774;SDS011;15926;51.348;6.596;2023-09-08T05:42:07;11.15;;;7.40;;
28774;SDS011;15926;51.348;6.596;2023-09-08T05:44:33;8.20;;;6.72;;
28774;SDS011;15926;51.348;6.596;2023-09-08T05:47:00;8.32;;;6.30;;
28774;SDS011;15926;51.348;6.596;2023-09-08T05:49:26;10.52;;;6.68;;
28774;SDS011;15926;51.348;6.596;2023-09-08T05:51:52;12.10;;;7.78;;
28774;SDS011;15926;51.348;6.596;2023-09-08T05:54:18;13.05;;;8.00;;
28774;SDS011;15926;51.348;6.596;2023-09-08T05:56:44;12.50;;;7.85;;
28774;SDS011;15926;51.348;6.596;2023-09-08T05:59:10;9.52;;;7.30;;
28774;SDS011;15926;51.348;6.596;2023-09-08T06:01:36;12.90;;;7.70;;
28774;SDS011;15926;51.348;6.596;2023-09-08T06:04:02;14.30;;;7.60;;
28774;SDS011;15926;51.348;6.596;2023-09-08T06:06:28;8.25;;;7.10;;
28774;SDS011;15926;51.348;6.596;2023-09-08T06:08:54;18.55;;;8.55;;
28774;SDS011;15926;51.348;6.596;2023-09-08T06:11:20;13.23;;;8.07;;
28774;SDS011;15926;51.348;6.596;2023-09-08T06:13:46;12.55;;;7.95;;
28774;SDS011;15926;51.348;6.596;2023-09-08T06:16:12;10.38;;;8.07;;
28774;SDS011;15926;51.348;6.596;2023-09-08T06:18:38;11.63;;;8.65;;
28774;SDS011;15926;51.348;6.596;2023-09-08T06:21:09;9.18;;;8.15;;
28774;SDS011;15926;51.348;6.596;2023-09-08T06:23:35;10.23;;;8.70;;
28774;SDS011;15926;51.348;6.596;2023-09-08T06:26:01;13.38;;;7.95;;
28774;SDS011;15926;51.348;6.596;2023-09-08T06:28:27;11.70;;;8.25;;
28774;SDS011;15926;51.348;6.596;2023-09-08T06:30:53;17.23;;;9.57;;
28774;SDS011;15926;51.348;6.596;2023-09-08T06:33:20;13.20;;;9.00;;
28774;SDS011;15926;51.348;6.596;2023-09-08T06:35:47;14.05;;;9.23;;
28774;SDS011;15926;51.348;6.596;2023-09-08T06:38:13;13.88;;;8.73;;
28774;SDS011;15926;51.348;6.596;2023-09-08T06:40:39;11.25;;;8.65;;
28774;SDS011;15926;51.348;6.596;2023-09-08T06:43:05;16.67;;;9.85;;
28774;SDS011;15926;51.348;6.596;2023-09-08T06:45:31;14.45;;;9.93;;
28774;SDS011;15926;51.348;6.596;2023-09-08T06:47:57;13.07;;;9.27;;
28774;SDS011;15926;51.348;6.596;2023-09-08T06:50:25;14.93;;;8.85;;
28774;SDS011;15926;51.348;6.596;2023-09-08T06:52:51;12.27;;;8.90;;
28774;SDS011;15926;51.348;6.596;2023-09-08T06:55:17;10.85;;;8.35;;
28774;SDS011;15926;51.348;6.596;2023-09-08T06:57:44;10.13;;;8.00;;
28774;SDS011;15926;51.348;6.596;2023-09-08T07:00:10;12.25;;;7.35;;
28774;SDS011;15926;51.348;6.596;2023-09-08T07:02:37;13.73;;;8.20;;
28774;SDS011;15926;51.348;6.596;2023-09-08T07:05:03;11.18;;;7.00;;
28774;SDS011;15926;51.348;6.596;2023-09-08T07:07:33;8.20;;;6.72;;
28774;SDS011;15926;51.348;6.596;2023-09-08T07:09:59;9.55;;;6.50;;
28774;SDS011;15926;51.348;6.596;2023-09-08T07:12:25;12.27;;;7.25;;
28774;SDS011;15926;51.348;6.596;2023-09-08T07:14:51;8.10;;;6.00;;
28774;SDS011;15926;51.348;6.596;2023-09-08T07:17:17;8.38;;;5.93;;
28774;SDS011;15926;51.348;6.596;2023-09-08T07:19:43;8.85;;;6.22;;
28774;SDS011;15926;51.348;6.596;2023-09-08T07:22:09;5.55;;;5.00;;
28774;SDS011;15926;51.348;6.596;2023-09-08T07:24:35;9.45;;;5.50;;
28774;SDS011;15926;51.348;6.596;2023-09-08T07:27:01;6.30;;;5.68;;
28774;SDS011;15926;51.348;6.596;2023-09-08T07:29:27;7.95;;;5.53;;
28774;SDS011;15926;51.348;6.596;2023-09-08T07:34:29;5.13;;;4.72;;
28774;SDS011;15926;51.348;6.596;2023-09-08T07:36:55;6.90;;;4.85;;
28774;SDS011;15926;51.348;6.596;2023-09-08T07:39:21;9.18;;;5.10;;
28774;SDS011;15926;51.348;6.596;2023-09-08T07:41:47;5.57;;;4.90;;
28774;SDS011;15926;51.348;6.596;2023-09-08T07:44:13;9.95;;;5.35;;
28774;SDS011;15926;51.348;6.596;2023-09-08T07:46:39;6.55;;;4.57;;
28774;SDS011;15926;51.348;6.596;2023-09-08T07:49:05;6.22;;;4.93;;
28774;SDS011;15926;51.348;6.596;2023-09-08T07:51:31;5.07;;;4.32;;
28774;SDS011;15926;51.348;6.596;2023-09-08T07:53:57;6.32;;;4.60;;
28774;SDS011;15926;51.348;6.596;2023-09-08T07:56:23;5.90;;;4.32;;
28774;SDS011;15926;51.348;6.596;2023-09-08T07:58:49;5.18;;;4.40;;
28774;SDS011;15926;51.348;6.596;2023-09-08T08:01:15;5.47;;;4.18;;
28774;SDS011;15926;51.348;6.596;2023-09-08T08:03:42;5.78;;;4.93;;
28774;SDS011;15926;51.348;6.596;2023-09-08T08:06:08;4.90;;;4.40;;
28774;SDS011;15926;51.348;6.596;2023-09-08T08:08:34;5.05;;;4.40;;
28774;SDS011;15926;51.348;6.596;2023-09-08T08:11:08;7.93;;;4.85;;
28774;SDS011;15926;51.348;6.596;2023-09-08T08:13:34;7.05;;;3.95;;
28774;SDS011;15926;51.348;6.596;2023-09-08T08:16:00;6.90;;;4.40;;
28774;SDS011;15926;51.348;6.596;2023-09-08T08:18:26;6.28;;;4.60;;
28774;SDS011;15926;51.348;6.596;2023-09-08T08:20:52;7.00;;;4.55;;
28774;SDS011;15926;51.348;6.596;2023-09-08T08:23:18;6.57;;;4.47;;
28774;SDS011;15926;51.348;6.596;2023-09-08T08:25:44;5.28;;;4.03;;
28774;SDS011;15926;51.348;6.596;2023-09-08T08:28:10;5.15;;;4.65;;
28774;SDS011;15926;51.348;6.596;2023-09-08T08:30:36;4.82;;;4.43;;
28774;SDS011;15926;51.348;6.596;2023-09-08T08:33:02;5.25;;;4.38;;
28774;SDS011;15926;51.348;6.596;2023-09-08T08:35:29;7.45;;;5.05;;
28774;SDS011;15926;51.348;6.596;2023-09-08T08:37:57;4.78;;;4.00;;
28774;SDS011;15926;51.348;6.596;2023-09-08T08:40:23;9.90;;;4.32;;
28774;SDS011;15926;51.348;6.596;2023-09-08T08:42:54;5.82;;;4.20;;
28774;SDS011;15926;51.348;6.596;2023-09-08T08:45:20;8.10;;;4.40;;
28774;SDS011;15926;51.348;6.596;2023-09-08T08:47:48;6.13;;;4.10;;
28774;SDS011;15926;51.348;6.596;2023-09-08T08:50:15;5.13;;;3.95;;
28774;SDS011;15926;51.348;6.596;2023-09-08T08:52:42;5.90;;;4.38;;
28774;SDS011;15926;51.348;6.596;2023-09-08T08:55:08;5.45;;;4.05;;
28774;SDS011;15926;51.348;6.596;2023-09-08T08:57:36;5.82;;;4.20;;
28774;SDS011;15926;51.348;6.596;2023-09-08T09:02:33;4.15;;;3.70;;
28774;SDS011;15926;51.348;6.596;2023-09-08T09:04:59;5.78;;;4.13;;
28774;SDS011;15926;51.348;6.596;2023-09-08T09:07:26;4.88;;;4.13;;
28774;SDS011;15926;51.348;6.596;2023-09-08T09:09:52;6.80;;;3.63;;
28774;SDS011;15926;51.348;6.596;2023-09-08T09:12:19;5.25;;;3.65;;
28774;SDS011;15926;51.348;6.596;2023-09-08T09:14:46;5.38;;;3.90;;
28774;SDS011;15926;51.348;6.596;2023-09-08T09:17:13;5.70;;;3.80;;
28774;SDS011;15926;51.348;6.596;2023-09-08T09:19:39;4.18;;;3.78;;
28774;SDS011;15926;51.348;6.596;2023-09-08T09:22:06;6.40;;;4.18;;
28774;SDS011;15926;51.348;6.596;2023-09-08T09:24:36;5.25;;;3.35;;
28774;SDS011;15926;51.348;6.596;2023-09-08T09:27:06;6.43;;;3.72;;
28774;SDS011;15926;51.348;6.596;2023-09-08T09:29:32;6.47;;;4.10;;
28774;SDS011;15926;51.348;6.596;2023-09-08T09:32:02;4.55;;;4.00;;
28774;SDS011;15926;51.348;6.596;2023-09-08T09:34:29;10.13;;;3.67;;
28774;SDS011;15926;51.348;6.596;2023-09-08T09:36:55;9.85;;;4.55;;
28774;SDS011;15926;51.348;6.596;2023-09-08T09:39:23;5.45;;;3.70;;
28774;SDS011;15926;51.348;6.596;2023-09-08T09:41:49;4.72;;;4.05;;
28774;SDS011;15926;51.348;6.596;2023-09-08T09:44:18;5.50;;;3.72;;
28774;SDS011;15926;51.348;6.596;2023-09-08T09:46:45;8.20;;;3.55;;
28774;SDS011;15926;51.348;6.596;2023-09-08T09:49:11;4.90;;;3.60;;
28774;SDS011;15926;51.348;6.596;2023-09-08T09:51:45;8.27;;;4.38;;
28774;SDS011;15926;51.348;6.596;2023-09-08T09:54:12;7.28;;;3.90;;
28774;SDS011;15926;51.348;6.596;2023-09-08T09:56:39;9.07;;;4.13;;
28774;SDS011;15926;51.348;6.596;2023-09-08T09:59:08;9.30;;;4.00;;
28774;SDS011;15926;51.348;6.596;2023-09-08T10:01:35;5.32;;;3.92;;
28774;SDS011;15926;51.348;6.596;2023-09-08T10:04:02;5.28;;;3.75;;
28774;SDS011;15926;51.348;6.596;2023-09-08T10:06:30;4.88;;;3.80;;
28774;SDS011;15926;51.348;6.596;2023-09-08T10:08:57;4.97;;;3.75;;
28774;SDS011;15926;51.348;6.596;2023-09-08T10:11:25;5.47;;;3.38;;
28774;SDS011;15926;51.348;6.596;2023-09-08T10:16:20;5.78;;;3.80;;
28774;SDS011;15926;51.348;6.596;2023-09-08T10:18:47;4.18;;;3.78;;
28774;SDS011;15926;51.348;6.596;2023-09-08T10:21:13;7.40;;;3.95;;
28774;SDS011;15926;51.348;6.596;2023-09-08T10:23:44;8.55;;;4.50;;
28774;SDS011;15926;51.348;6.596;2023-09-08T10:26:13;3.67;;;3.38;;
28774;SDS011;15926;51.348;6.596;2023-09-08T10:28:40;5.38;;;3.65;;
28774;SDS011;15926;51.348;6.596;2023-09-08T10:31:06;4.45;;;3.70;;
28774;SDS011;15926;51.348;6.596;2023-09-08T10:33:32;5.80;;;3.72;;
28774;SDS011;15926;51.348;6.596;2023-09-08T10:36:00;6.25;;;3.70;;
28774;SDS011;15926;51.348;6.596;2023-09-08T10:38:31;6.73;;;4.07;;
28774;SDS011;15926;51.348;6.596;2023-09-08T10:41:44;4.93;;;4.10;;
28774;SDS011;15926;51.348;6.596;2023-09-08T10:43:46;5.30;;;4.30;;
28774;SDS011;15926;51.348;6.596;2023-09-08T10:46:21;4.30;;;3.90;;
28774;SDS011;15926;51.348;6.596;2023-09-08T10:48:48;8.73;;;3.83;;
28774;SDS011;15926;51.348;6.596;2023-09-08T10:51:14;4.20;;;3.80;;
28774;SDS011;15926;51.348;6.596;2023-09-08T10:53:41;8.05;;;4.03;;
28774;SDS011;15926;51.348;6.596;2023-09-08T10:56:07;4.70;;;3.90;;
28774;SDS011;15926;51.348;6.596;2023-09-08T10:58:33;4.47;;;3.38;;
28774;SDS011;15926;51.348;6.596;2023-09-08T11:01:13;4.05;;;3.65;;
28774;SDS011;15926;51.348;6.596;2023-09-08T11:06:07;3.83;;;3.42;;
28774;SDS011;15926;51.348;6.596;2023-09-08T11:08:33;4.10;;;3.75;;
28774;SDS011;15926;51.348;6.596;2023-09-08T11:11:00;4.22;;;3.83;;
28774;SDS011;15926;51.348;6.596;2023-09-08T11:13:27;4.20;;;3.58;;
28774;SDS011;15926;51.348;6.596;2023-09-08T11:15:53;4.43;;;4.03;;
28774;SDS011;15926;51.348;6.596;2023-09-08T11:18:26;4.47;;;3.50;;
28774;SDS011;15926;51.348;6.596;2023-09-08T11:20:52;3.75;;;3.38;;
28774;SDS011;15926;51.348;6.596;2023-09-08T11:23:18;4.63;;;4.00;;
28774;SDS011;15926;51.348;6.596;2023-09-08T11:25:44;4.30;;;3.95;;
28774;SDS011;15926;51.348;6.596;2023-09-08T11:28:10;4.40;;;4.00;;
28774;SDS011;15926;51.348;6.596;2023-09-08T11:30:38;4.18;;;3.70;;
28774;SDS011;15926;51.348;6.596;2023-09-08T11:33:07;3.85;;;3.40;;
28774;SDS011;15926;51.348;6.596;2023-09-08T11:35:39;4.63;;;3.63;;
28774;SDS011;15926;51.348;6.596;2023-09-08T11:38:05;4.20;;;3.42;;
28774;SDS011;15926;51.348;6.596;2023-09-08T11:40:31;4.68;;;4.03;;
28774;SDS011;15926;51.348;6.596;2023-09-08T11:42:59;5.30;;;4.30;;
28774;SDS011;15926;51.348;6.596;2023-09-08T11:45:25;4.32;;;4.03;;
28774;SDS011;15926;51.348;6.596;2023-09-08T11:47:52;4.07;;;3.78;;
28774;SDS011;15926;51.348;6.596;2023-09-08T11:50:18;3.95;;;3.75;;
28774;SDS011;15926;51.348;6.596;2023-09-08T11:52:48;4.75;;;4.15;;
28774;SDS011;15926;51.348;6.596;2023-09-08T11:55:15;4.97;;;3.58;;
28774;SDS011;15926;51.348;6.596;2023-09-08T11:57:42;5.13;;;3.67;;
28774;SDS011;15926;51.348;6.596;2023-09-08T12:00:09;5.10;;;3.67;;
28774;SDS011;15926;51.348;6.596;2023-09-08T12:02:39;5.40;;;3.53;;
28774;SDS011;15926;51.348;6.596;2023-09-08T12:05:05;5.13;;;3.90;;
28774;SDS011;15926;51.348;6.596;2023-09-08T12:07:37;4.30;;;3.63;;
28774;SDS011;15926;51.348;6.596;2023-09-08T12:10:10;4.78;;;3.47;;
28774;SDS011;15926;51.348;6.596;2023-09-08T12:12:45;4.30;;;3.90;;
28774;SDS011;15926;51.348;6.596;2023-09-08T12:15:11;4.90;;;4.30;;
28774;SDS011;15926;51.348;6.596;2023-09-08T12:17:47;5.05;;;3.60;;
28774;SDS011;15926;51.348;6.596;2023-09-08T12:20:14;4.18;;;3.78;;
28774;SDS011;15926;51.348;6.596;2023-09-08T12:22:47;4.80;;;3.55;;
28774;SDS011;15926;51.348;6.596;2023-09-08T12:25:14;4.03;;;3.58;;
28774;SDS011;15926;51.348;6.596;2023-09-08T12:27:40;3.63;;;3.33;;
28774;SDS011;15926;51.348;6.596;2023-09-08T12:30:06;5.03;;;3.53;;
28774;SDS011;15926;51.348;6.596;2023-09-08T12:32:33;4.15;;;3.78;;
28774;SDS011;15926;51.348;6.596;2023-09-08T12:35:01;3.95;;;3.42;;
28774;SDS011;15926;51.348;6.596;2023-09-08T12:37:28;11.70;;;3.45;;
28774;SDS011;15926;51.348;6.596;2023-09-08T12:39:57;3.88;;;3.47;;
28774;SDS011;15926;51.348;6.596;2023-09-08T12:42:26;5.55;;;3.55;;
28774;SDS011;15926;51.348;6.596;2023-09-08T12:44:54;4.18;;;3.25;;
28774;SDS011;15926;51.348;6.596;2023-09-08T12:47:20;5.10;;;3.30;;
28774;SDS011;15926;51.348;6.596;2023-09-08T12:49:46;4.85;;;3.33;;
28774;SDS011;15926;51.348;6.596;2023-09-08T12:52:12;4.13;;;3.72;;
28774;SDS011;15926;51.348;6.596;2023-09-08T12:54:38;9.68;;;3.47;;
28774;SDS011;15926;51.348;6.596;2023-09-08T12:57:04;6.28;;;3.25;;
28774;SDS011;15926;51.348;6.596;2023-09-08T12:59:30;3.78;;;3.47;;
28774;SDS011;15926;51.348;6.596;2023-09-08T13:01:56;3.85;;;3.53;;
28774;SDS011;15926;51.348;6.596;2023-09-08T13:04:23;4.13;;;3.58;;
28774;SDS011;15926;51.348;6.596;2023-09-08T13:06:49;3.97;;;3.67;;
28774;SDS011;15926;51.348;6.596;2023-09-08T13:09:15;6.10;;;3.63;;
28774;SDS011;15926;51.348;6.596;2023-09-08T13:11:42;4.47;;;3.75;;
28774;SDS011;15926;51.348;6.596;2023-09-08T13:14:08;4.25;;;3.80;;
28774;SDS011;15926;51.348;6.596;2023-09-08T13:16:34;4.00;;;3.58;;
28774;SDS011;15926;51.348;6.596;2023-09-08T13:19:00;4.82;;;4.03;;
28774;SDS011;15926;51.348;6.596;2023-09-08T13:21:26;6.47;;;3.33;;
28774;SDS011;15926;51.348;6.596;2023-09-08T13:23:52;3.55;;;3.25;;
28774;SDS011;15926;51.348;6.596;2023-09-08T13:26:18;4.28;;;3.90;;
28774;SDS011;15926;51.348;6.596;2023-09-08T13:28:44;3.83;;;3.50;;
28774;SDS011;15926;51.348;6.596;2023-09-08T13:31:10;5.07;;;3.40;;
28774;SDS011;15926;51.348;6.596;2023-09-08T13:33:36;4.45;;;3.72;;
28774;SDS011;15926;51.348;6.596;2023-09-08T13:36:02;3.97;;;3.65;;
28774;SDS011;15926;51.348;6.596;2023-09-08T13:38:28;4.38;;;3.78;;
28774;SDS011;15926;51.348;6.596;2023-09-08T13:40:54;4.43;;;4.03;;
28774;SDS011;15926;51.348;6.596;2023-09-08T13:43:20;3.92;;;3.63;;
28774;SDS011;15926;51.348;6.596;2023-09-08T13:45:46;4.00;;;3.60;;
28774;SDS011;15926;51.348;6.596;2023-09-08T13:48:12;5.00;;;3.75;;
28774;SDS011;15926;51.348;6.596;2023-09-08T13:50:38;3.83;;;3.53;;
28774;SDS011;15926;51.348;6.596;2023-09-08T13:53:05;5.05;;;3.58;;
28774;SDS011;15926;51.348;6.596;2023-09-08T13:55:31;4.38;;;3.75;;
28774;SDS011;15926;51.348;6.596;2023-09-08T13:57:57;4.10;;;3.40;;
28774;SDS011;15926;51.348;6.596;2023-09-08T14:00:23;6.22;;;3.75;;
28774;SDS011;15926;51.348;6.596;2023-09-08T14:02:49;3.78;;;3.45;;
28774;SDS011;15926;51.348;6.596;2023-09-08T14:05:15;4.07;;;3.60;;
28774;SDS011;15926;51.348;6.596;2023-09-08T14:07:41;7.35;;;4.03;;
28774;SDS011;15926;51.348;6.596;2023-09-08T14:10:07;4.63;;;4.22;;
28774;SDS011;15926;51.348;6.596;2023-09-08T14:12:34;5.38;;;3.60;;
28774;SDS011;15926;51.348;6.596;2023-09-08T14:15:00;3.50;;;3.30;;
28774;SDS011;15926;51.348;6.596;2023-09-08T14:17:27;4.00;;;3.20;;
28774;SDS011;15926;51.348;6.596;2023-09-08T14:19:53;5.65;;;3.20;;
28774;SDS011;15926;51.348;6.596;2023-09-08T14:22:19;4.07;;;3.78;;
28774;SDS011;15926;51.348;6.596;2023-09-08T14:24:45;3.63;;;3.33;;
28774;SDS011;15926;51.348;6.596;2023-09-08T14:27:11;4.00;;;3.60;;
28774;SDS011;15926;51.348;6.596;2023-09-08T14:29:37;3.83;;;3.28;;
28774;SDS011;15926;51.348;6.596;2023-09-08T14:32:03;3.47;;;3.17;;
28774;SDS011;15926;51.348;6.596;2023-09-08T14:34:29;5.15;;;3.80;;
28774;SDS011;15926;51.348;6.596;2023-09-08T14:36:55;4.38;;;3.72;;
28774;SDS011;15926;51.348;6.596;2023-09-08T14:39:21;9.25;;;3.33;;
28774;SDS011;15926;51.348;6.596;2023-09-08T14:41:48;8.00;;;3.50;;
28774;SDS011;15926;51.348;6.596;2023-09-08T14:44:18;3.88;;;3.50;;
28774;SDS011;15926;51.348;6.596;2023-09-08T14:46:46;4.40;;;3.42;;
28774;SDS011;15926;51.348;6.596;2023-09-08T14:49:12;4.78;;;3.40;;
28774;SDS011;15926;51.348;6.596;2023-09-08T14:51:39;3.90;;;3.08;;
28774;SDS011;15926;51.348;6.596;2023-09-08T14:54:05;3.35;;;3.05;;
28774;SDS011;15926;51.348;6.596;2023-09-08T14:56:32;4.38;;;3.97;;
28774;SDS011;15926;51.348;6.596;2023-09-08T14:58:57;7.10;;;3.88;;
28774;SDS011;15926;51.348;6.596;2023-09-08T15:01:24;5.97;;;3.40;;
28774;SDS011;15926;51.348;6.596;2023-09-08T15:03:50;3.50;;;3.20;;
28774;SDS011;15926;51.348;6.596;2023-09-08T15:06:16;3.25;;;3.05;;
28774;SDS011;15926;51.348;6.596;2023-09-08T15:08:42;5.32;;;3.83;;
28774;SDS011;15926;51.348;6.596;2023-09-08T15:11:10;5.03;;;3.40;;
28774;SDS011;15926;51.348;6.596;2023-09-08T15:13:36;3.72;;;3.42;;
28774;SDS011;15926;51.348;6.596;2023-09-08T15:16:03;4.50;;;3.60;;
28774;SDS011;15926;51.348;6.596;2023-09-08T15:18:29;3.95;;;3.65;;
28774;SDS011;15926;51.348;6.596;2023-09-08T15:20:56;4.43;;;3.97;;
28774;SDS011;15926;51.348;6.596;2023-09-08T15:23:22;5.35;;;3.50;;
28774;SDS011;15926;51.348;6.596;2023-09-08T15:25:55;4.18;;;3.78;;
28774;SDS011;15926;51.348;6.596;2023-09-08T15:28:21;4.90;;;3.17;;
28774;SDS011;15926;51.348;6.596;2023-09-08T15:30:48;4.43;;;4.13;;
28774;SDS011;15926;51.348;6.596;2023-09-08T15:33:14;4.00;;;3.63;;
28774;SDS011;15926;51.348;6.596;2023-09-08T15:35:41;5.90;;;3.60;;
28774;SDS011;15926;51.348;6.596;2023-09-08T15:38:07;5.35;;;3.60;;
28774;SDS011;15926;51.348;6.596;2023-09-08T15:40:33;3.83;;;3.50;;
28774;SDS011;15926;51.348;6.596;2023-09-08T15:42:59;3.83;;;3.53;;
28774;SDS011;15926;51.348;6.596;2023-09-08T15:45:25;3.72;;;3.50;;
28774;SDS011;15926;51.348;6.596;2023-09-08T15:47:51;6.50;;;3.60;;
28774;SDS011;15926;51.348;6.596;2023-09-08T15:50:17;3.85;;;3.55;;
28774;SDS011;15926;51.348;6.596;2023-09-08T15:52:43;3.78;;;3.42;;
28774;SDS011;15926;51.348;6.596;2023-09-08T15:55:09;4.10;;;3.70;;
28774;SDS011;15926;51.348;6.596;2023-09-08T15:57:35;5.25;;;3.97;;
28774;SDS011;15926;51.348;6.596;2023-09-08T16:00:01;7.15;;;3.15;;
28774;SDS011;15926;51.348;6.596;2023-09-08T16:02:28;6.30;;;4.30;;
28774;SDS011;15926;51.348;6.596;2023-09-08T16:04:54;3.88;;;3.53;;
28774;SDS011;15926;51.348;6.596;2023-09-08T16:07:21;3.88;;;3.50;;
28774;SDS011;15926;51.348;6.596;2023-09-08T16:09:48;6.18;;;3.95;;
28774;SDS011;15926;51.348;6.596;2023-09-08T16:12:14;4.45;;;4.03;;
28774;SDS011;15926;51.348;6.596;2023-09-08T16:14:40;5.38;;;3.85;;
28774;SDS011;15926;51.348;6.596;2023-09-08T16:17:06;5.88;;;4.10;;
28774;SDS011;15926;51.348;6.596;2023-09-08T16:19:33;5.78;;;3.92;;
28774;SDS011;15926;51.348;6.596;2023-09-08T16:21:59;4.78;;;4.13;;
28774;SDS011;15926;51.348;6.596;2023-09-08T16:24:25;5.10;;;3.83;;
28774;SDS011;15926;51.348;6.596;2023-09-08T16:26:51;6.95;;;4.00;;
28774;SDS011;15926;51.348;6.596;2023-09-08T16:29:17;6.00;;;4.05;;
28774;SDS011;15926;51.348;6.596;2023-09-08T16:31:43;4.70;;;4.22;;
28774;SDS011;15926;51.348;6.596;2023-09-08T16:34:09;4.10;;;3.80;;
28774;SDS011;15926;51.348;6.596;2023-09-08T16:36:35;6.75;;;3.55;;
28774;SDS011;15926;51.348;6.596;2023-09-08T16:39:01;5.75;;;3.97;;
28774;SDS011;15926;51.348;6.596;2023-09-08T16:41:28;8.95;;;4.43;;
28774;SDS011;15926;51.348;6.596;2023-09-08T16:43:54;6.65;;;3.72;;
28774;SDS011;15926;51.348;6.596;2023-09-08T16:46:20;4.30;;;3.90;;
28774;SDS011;15926;51.348;6.596;2023-09-08T16:48:46;6.90;;;4.30;;
28774;SDS011;15926;51.348;6.596;2023-09-08T16:51:12;8.60;;;4.32;;
28774;SDS011;15926;51.348;6.596;2023-09-08T16:53:38;9.40;;;4.28;;
28774;SDS011;15926;51.348;6.596;2023-09-08T16:56:04;5.65;;;4.38;;
28774;SDS011;15926;51.348;6.596;2023-09-08T16:58:33;9.95;;;4.55;;
28774;SDS011;15926;51.348;6.596;2023-09-08T17:00:59;12.20;;;5.63;;
28774;SDS011;15926;51.348;6.596;2023-09-08T17:03:25;19.38;;;5.82;;
28774;SDS011;15926;51.348;6.596;2023-09-08T17:05:51;24.58;;;6.45;;
28774;SDS011;15926;51.348;6.596;2023-09-08T17:08:17;25.13;;;8.02;;
28774;SDS011;15926;51.348;6.596;2023-09-08T17:10:43;28.98;;;8.35;;
28774;SDS011;15926;51.348;6.596;2023-09-08T17:13:12;9.32;;;5.05;;
28774;SDS011;15926;51.348;6.596;2023-09-08T17:15:38;15.98;;;6.70;;
28774;SDS011;15926;51.348;6.596;2023-09-08T17:18:04;6.47;;;4.35;;
28774;SDS011;15926;51.348;6.596;2023-09-08T17:20:30;9.65;;;4.93;;
28774;SDS011;15926;51.348;6.596;2023-09-08T17:22:56;10.77;;;5.25;;
28774;SDS011;15926;51.348;6.596;2023-09-08T17:25:22;8.18;;;5.13;;
28774;SDS011;15926;51.348;6.596;2023-09-08T17:27:48;7.97;;;5.20;;
28774;SDS011;15926;51.348;6.596;2023-09-08T17:30:14;9.30;;;4.70;;
28774;SDS011;15926;51.348;6.596;2023-09-08T17:32:40;9.88;;;4.88;;
28774;SDS011;15926;51.348;6.596;2023-09-08T17:35:06;10.30;;;4.85;;
28774;SDS011;15926;51.348;6.596;2023-09-08T17:37:32;7.78;;;4.88;;
28774;SDS011;15926;51.348;6.596;2023-09-08T17:39:59;10.77;;;5.25;;
28774;SDS011;15926;51.348;6.596;2023-09-08T17:42:24;13.68;;;4.95;;
28774;SDS011;15926;51.348;6.596;2023-09-08T17:44:50;8.05;;;4.70;;
28774;SDS011;15926;51.348;6.596;2023-09-08T17:47:16;7.70;;;5.03;;
28774;SDS011;15926;51.348;6.596;2023-09-08T17:49:42;7.40;;;4.68;;
28774;SDS011;15926;51.348;6.596;2023-09-08T17:52:09;14.32;;;4.80;;
28774;SDS011;15926;51.348;6.596;2023-09-08T17:54:34;13.98;;;5.07;;
28774;SDS011;15926;51.348;6.596;2023-09-08T17:57:00;7.68;;;4.88;;
28774;SDS011;15926;51.348;6.596;2023-09-08T17:59:26;12.80;;;4.68;;
28774;SDS011;15926;51.348;6.596;2023-09-08T18:01:52;10.93;;;4.97;;
28774;SDS011;15926;51.348;6.596;2023-09-08T18:04:19;8.30;;;5.30;;
28774;SDS011;15926;51.348;6.596;2023-09-08T18:06:45;9.77;;;5.75;;
28774;SDS011;15926;51.348;6.596;2023-09-08T18:09:11;6.90;;;4.95;;
28774;SDS011;15926;51.348;6.596;2023-09-08T18:11:37;9.40;;;4.90;;
28774;SDS011;15926;51.348;6.596;2023-09-08T18:14:03;6.60;;;4.70;;
28774;SDS011;15926;51.348;6.596;2023-09-08T18:16:31;9.38;;;5.72;;
28774;SDS011;15926;51.348;6.596;2023-09-08T18:18:57;9.52;;;5.43;;
28774;SDS011;15926;51.348;6.596;2023-09-08T18:21:23;13.70;;;6.20;;
28774;SDS011;15926;51.348;6.596;2023-09-08T18:23:49;10.77;;;6.05;;
28774;SDS011;15926;51.348;6.596;2023-09-08T18:26:16;9.98;;;5.38;;
28774;SDS011;15926;51.348;6.596;2023-09-08T18:28:42;10.57;;;5.95;;
28774;SDS011;15926;51.348;6.596;2023-09-08T18:31:08;15.63;;;6.63;;
28774;SDS011;15926;51.348;6.596;2023-09-08T18:33:34;16.38;;;6.70;;
28774;SDS011;15926;51.348;6.596;2023-09-08T18:36:00;18.23;;;7.05;;
28774;SDS011;15926;51.348;6.596;2023-09-08T18:38:26;15.65;;;7.40;;
28774;SDS011;15926;51.348;6.596;2023-09-08T18:40:52;9.40;;;6.18;;
28774;SDS011;15926;51.348;6.596;2023-09-08T18:43:18;17.23;;;6.60;;
28774;SDS011;15926;51.348;6.596;2023-09-08T18:45:44;10.50;;;6.97;;
28774;SDS011;15926;51.348;6.596;2023-09-08T18:48:11;7.65;;;6.57;;
28774;SDS011;15926;51.348;6.596;2023-09-08T18:50:37;7.75;;;7.07;;
28774;SDS011;15926;51.348;6.596;2023-09-08T18:53:03;18.10;;;7.68;;